Time;durP1;ratioP1;P1;durP2;ratioP2;P2;SDS_P1;SDS_P2;PMS_P1;PMS_P2;Temp;Humidity;BMP_temperature;BMP_pressure;BME280_temperature;BME280_humidity;BME280_pressure;Samples;Min_cycle;Max_cycle;Signal;HPM_P1;HPM_P2
2021/07/14 00:02:22;;;;;;;8.82;4.35;;;;;;;21.15;62.60;97946.56;5030167;28;20033;-63
2021/07/14 00:04:48;;;;;;;6.30;3.33;;;;;;;20.87;62.84;97945.91;5030678;28;20030;-63
2021/07/14 00:07:13;;;;;;;2.60;2.50;;;;;;;20.73;62.63;97955.66;5027004;28;20401;-63
2021/07/14 00:09:38;;;;;;;3.35;3.10;;;;;;;20.50;63.27;97949.44;5028339;28;20033;-62
2021/07/14 00:12:07;;;;;;;4.35;3.33;;;;;;;20.51;63.00;97951.09;5029539;28;20371;-63
2021/07/14 00:22:22;;;;;;;;;;;;;;;20.29;62.54;97956.09;5024562;28;20043;-63
2021/07/14 00:24:47;;;;;;;2.85;2.65;;;;;;;20.26;63.16;97964.13;5025195;28;19912;-64
2021/07/14 00:27:13;;;;;;;2.13;1.92;;;;;;;20.21;62.77;97964.44;5026248;28;20307;-63
2021/07/14 00:29:50;;;;;;;1.95;1.80;;;;;;;20.12;62.84;97979.84;5026660;28;20041;-64
2021/07/14 00:32:15;;;;;;;2.20;2.10;;;;;;;20.07;62.89;97954.16;5029766;28;20124;-63
2021/07/14 00:34:41;;;;;;;5.63;2.00;;;;;;;20.01;63.20;97981.44;5026302;28;20358;-63
2021/07/14 00:37:07;;;;;;;2.50;2.05;;;;;;;19.97;63.28;97961.75;5028243;28;20048;-63
2021/07/14 00:39:32;;;;;;;1.70;1.70;;;;;;;19.99;62.92;97962.47;5028681;28;20100;-63
2021/07/14 00:41:57;;;;;;;3.42;2.42;;;;;;;19.92;63.23;97976.00;5029098;28;20807;-63
2021/07/14 00:44:23;;;;;;;2.85;2.33;;;;;;;19.84;63.22;97992.13;5027726;28;20287;-62
2021/07/14 00:46:49;;;;;;;1.90;1.60;;;;;;;19.79;63.74;97986.38;5023317;28;20321;-63
2021/07/14 00:49:16;;;;;;;2.10;1.85;;;;;;;19.79;63.90;97991.59;5028887;28;20029;-63
2021/07/14 00:51:41;;;;;;;1.98;1.60;;;;;;;19.61;64.33;97990.19;5023908;28;20310;-63
2021/07/14 00:54:07;;;;;;;1.85;1.75;;;;;;;19.61;64.47;97991.03;5025245;28;20037;-63
2021/07/14 00:56:33;;;;;;;1.98;1.85;;;;;;;19.60;64.66;97978.16;5025154;28;20033;-63
2021/07/14 00:58:59;;;;;;;3.03;2.00;;;;;;;19.65;64.44;97975.25;5025850;28;20120;-63
2021/07/14 01:01:25;;;;;;;1.92;1.83;;;;;;;19.64;64.25;97989.19;5027830;28;20428;-63
2021/07/14 01:04:15;;;;;;;4.40;3.00;;;;;;;19.65;63.96;97983.84;5026797;28;20080;-63
2021/07/14 01:06:43;;;;;;;2.00;1.90;;;;;;;19.60;64.42;97984.16;5027690;28;20029;-63
2021/07/14 01:09:11;;;;;;;2.25;2.05;;;;;;;19.55;64.75;97980.22;5026459;28;20436;-63
2021/07/14 01:11:38;;;;;;;2.20;2.08;;;;;;;19.54;64.52;97983.75;5027325;28;20051;-63
2021/07/14 01:14:23;;;;;;;2.33;2.20;;;;;;;19.51;64.79;97981.34;5026776;28;20038;-63
2021/07/14 01:17:01;;;;;;;2.33;1.73;;;;;;;19.57;64.65;97986.13;5027986;28;20111;-63
2021/07/14 01:20:04;;;;;;;2.20;2.10;;;;;;;19.66;64.75;97992.50;5026606;28;20402;-63
2021/07/14 01:22:38;;;;;;;2.30;2.15;;;;;;;19.63;64.40;98009.16;5026847;28;20037;-63
2021/07/14 01:25:08;;;;;;;3.35;2.03;;;;;;;19.50;65.47;98003.06;5030236;28;20034;-64
2021/07/14 01:27:36;;;;;;;2.47;2.28;;;;;;;19.58;64.51;97996.44;5025657;28;20029;-63
2021/07/14 01:30:08;;;;;;;3.72;2.35;;;;;;;19.49;65.02;98011.81;5025727;28;20032;-63
2021/07/14 01:32:36;;;;;;;1.92;1.83;;;;;;;19.49;64.78;97997.03;5026115;28;20013;-64
2021/07/14 01:35:07;;;;;;;2.20;2.10;;;;;;;19.55;65.04;97995.81;5021856;28;20188;-64
2021/07/14 01:37:34;;;;;;;3.03;1.90;;;;;;;19.45;64.96;97994.75;5028870;28;20072;-63
2021/07/14 01:40:03;;;;;;;2.40;2.30;;;;;;;19.54;65.09;97981.16;5024032;28;20033;-64
2021/07/14 01:42:30;;;;;;;3.17;1.85;;;;;;;19.49;64.87;97954.59;5029616;28;20589;-64
2021/07/14 01:44:57;;;;;;;1.92;1.70;;;;;;;19.62;64.49;97963.25;5029202;28;20041;-64
2021/07/14 01:47:24;;;;;;;2.42;2.22;;;;;;;19.60;64.75;97958.16;5024634;28;20035;-64
2021/07/14 01:49:51;;;;;;;2.75;2.40;;;;;;;19.68;64.68;97943.84;5025596;28;20389;-64
2021/07/14 01:52:20;;;;;;;3.03;2.83;;;;;;;19.71;64.55;97943.63;5025862;28;20035;-64
2021/07/14 01:54:48;;;;;;;2.05;1.95;;;;;;;19.75;64.83;97952.88;5021155;28;20048;-64
2021/07/14 01:57:14;;;;;;;2.60;2.40;;;;;;;19.75;64.25;97945.06;5024594;28;20022;-64
2021/07/14 01:59:42;;;;;;;3.15;2.55;;;;;;;19.79;64.49;97931.75;5024363;28;20323;-64
2021/07/14 02:02:09;;;;;;;3.00;2.30;;;;;;;19.84;64.34;97944.47;5016422;28;20036;-64
2021/07/14 02:04:38;;;;;;;3.65;3.35;;;;;;;19.95;64.22;97958.41;5024998;28;20029;-64
2021/07/14 02:07:14;;;;;;;4.45;2.90;;;;;;;19.94;64.66;97969.75;5026288;28;20030;-64
2021/07/14 02:09:43;;;;;;;4.15;2.90;;;;;;;20.05;64.38;97971.63;5025453;28;20033;-64
2021/07/14 02:12:18;;;;;;;3.40;3.10;;;;;;;20.08;64.54;97959.25;5028425;28;20037;-64
2021/07/14 02:14:55;;;;;;;3.13;2.92;;;;;;;20.12;64.38;97959.03;5024733;28;20310;-64
2021/07/14 02:17:23;;;;;;;3.42;3.10;;;;;;;20.15;64.18;97954.47;5031734;28;20108;-64
2021/07/14 02:19:59;;;;;;;3.50;3.15;;;;;;;20.23;63.96;97964.34;5031072;28;20417;-64
2021/07/14 02:22:27;;;;;;;3.38;3.08;;;;;;;20.30;64.09;97955.19;5030903;28;20057;-63
2021/07/14 02:24:53;;;;;;;2.95;2.63;;;;;;;20.27;63.78;97950.19;5033785;28;20046;-62
2021/07/14 02:27:18;;;;;;;4.05;3.75;;;;;;;20.30;64.01;97942.19;5029014;28;20041;-63
2021/07/14 02:29:44;;;;;;;3.80;3.50;;;;;;;20.27;64.05;97953.63;5028248;28;20029;-62
2021/07/14 02:32:15;;;;;;;2.80;2.70;;;;;;;20.35;63.62;97960.94;5031772;28;20044;-63
2021/07/14 02:34:43;;;;;;;3.30;3.00;;;;;;;20.42;63.71;97962.16;5031893;28;20025;-63
2021/07/14 02:37:11;;;;;;;4.05;3.35;;;;;;;20.40;63.36;97951.88;5031363;28;20108;-62
2021/07/14 02:39:40;;;;;;;5.88;2.80;;;;;;;20.56;62.85;97948.19;5030982;28;20560;-62
2021/07/14 02:42:15;;;;;;;4.38;2.83;;;;;;;20.60;62.73;97954.84;5029184;28;20025;-62
2021/07/14 02:44:44;;;;;;;6.47;3.13;;;;;;;20.56;63.15;97977.66;5031440;28;20072;-62
2021/07/14 02:47:11;;;;;;;3.17;2.97;;;;;;;20.67;62.45;98005.56;5031707;28;20033;-63
2021/07/14 02:49:39;;;;;;;2.85;2.70;;;;;;;20.73;62.41;98026.81;5031038;28;20405;-63
2021/07/14 02:52:08;;;;;;;4.68;2.85;;;;;;;20.77;62.20;98041.31;5031548;28;20087;-63
2021/07/14 02:54:35;;;;;;;3.13;2.90;;;;;;;20.72;62.25;98060.78;5029396;28;20029;-62
2021/07/14 02:57:02;;;;;;;3.20;3.00;;;;;;;20.68;62.38;98080.19;5032033;28;20085;-63
2021/07/14 02:59:31;;;;;;;3.75;3.45;;;;;;;20.75;62.89;98116.13;5031689;28;20029;-63
2021/07/14 03:01:59;;;;;;;10.60;4.07;;;;;;;20.82;63.65;98103.53;5027309;28;20021;-63
2021/07/14 03:04:34;;;;;;;12.07;6.72;;;;;;;20.34;71.15;98155.38;5033918;28;20037;-61
2021/07/14 03:07:02;;;;;;;10.70;4.90;;;;;;;19.54;76.01;98155.38;5029977;28;20083;-61
2021/07/14 03:09:37;;;;;;;7.93;5.45;;;;;;;19.21;79.34;98101.09;5028437;28;20029;-61
2021/07/14 03:12:05;;;;;;;10.65;5.93;;;;;;;18.79;82.88;98055.22;5029006;28;20033;-61
2021/07/14 03:14:31;;;;;;;15.25;7.53;;;;;;;18.57;86.91;98047.06;5029957;28;20029;-61
2021/07/14 03:16:57;;;;;;;12.02;7.25;;;;;;;18.40;88.79;98024.69;5030357;28;20396;-61
2021/07/14 03:19:25;;;;;;;10.88;5.70;;;;;;;18.15;88.92;98027.91;5027638;28;20055;-61
2021/07/14 03:21:51;;;;;;;8.75;5.15;;;;;;;17.92;89.22;98025.81;5030193;28;20033;-61
2021/07/14 03:24:16;;;;;;;7.88;5.18;;;;;;;17.83;89.28;98031.53;5029957;28;20041;-62
2021/07/14 03:26:42;;;;;;;8.57;5.40;;;;;;;17.76;89.55;98030.22;5024289;28;20033;-62
2021/07/14 03:29:08;;;;;;;7.03;4.95;;;;;;;17.66;90.05;98026.47;5030003;28;20079;-62
2021/07/14 03:31:34;;;;;;;8.98;4.82;;;;;;;17.59;90.06;98040.72;5027289;28;20033;-62
2021/07/14 03:34:01;;;;;;;5.30;4.60;;;;;;;17.55;89.67;98036.59;5029983;28;20021;-62
2021/07/14 03:36:27;;;;;;;7.95;3.72;;;;;;;17.56;89.36;98040.84;5026168;28;20034;-61
2021/07/14 03:38:54;;;;;;;7.70;4.55;;;;;;;17.49;89.68;98005.81;5030444;28;20028;-61
2021/07/14 03:41:20;;;;;;;4.38;4.07;;;;;;;17.49;90.33;98005.81;5026567;28;20033;-61
2021/07/14 03:43:46;;;;;;;5.82;3.85;;;;;;;17.42;88.76;97989.78;5029094;28;20033;-61
2021/07/14 03:46:12;;;;;;;6.85;4.60;;;;;;;17.47;89.53;97992.13;5024843;28;20111;-61
2021/07/14 03:48:39;;;;;;;4.63;4.10;;;;;;;17.48;89.61;97967.88;5029202;28;20030;-61
2021/07/14 03:51:05;;;;;;;5.65;4.57;;;;;;;17.46;89.93;97955.00;5028277;28;20026;-62
2021/07/14 03:53:30;;;;;;;5.20;4.70;;;;;;;17.46;90.25;97964.53;5028245;28;20025;-62
2021/07/14 03:55:57;;;;;;;7.97;5.05;;;;;;;17.47;90.38;97948.06;5031602;28;20429;-62
2021/07/14 03:58:24;;;;;;;6.03;5.35;;;;;;;17.58;89.71;97949.16;5028515;28;20037;-62
2021/07/14 04:00:50;;;;;;;6.40;4.70;;;;;;;17.65;89.10;97967.78;5026092;28;20092;-62
2021/07/14 04:03:21;;;;;;;4.35;3.72;;;;;;;17.67;88.19;97997.03;5030449;28;20041;-62
2021/07/14 04:05:49;;;;;;;5.97;4.03;;;;;;;17.72;89.16;98008.81;5029151;28;20037;-62
2021/07/14 04:08:24;;;;;;;5.70;3.60;;;;;;;17.63;86.64;98035.25;5032207;28;20373;-63
2021/07/14 04:10:49;;;;;;;4.50;3.70;;;;;;;17.49;88.15;98066.28;5027048;28;20040;-62
2021/07/14 04:13:15;;;;;;;3.60;3.30;;;;;;;17.37;89.34;98061.78;5027098;28;20286;-61
2021/07/14 04:15:40;;;;;;;3.78;3.40;;;;;;;17.29;89.44;98051.00;5024930;28;20029;-62
2021/07/14 04:18:07;;;;;;;5.00;3.50;;;;;;;17.29;89.53;98036.28;5025490;28;20439;-62
2021/07/14 04:20:33;;;;;;;5.40;3.92;;;;;;;17.23;89.94;98028.84;5026265;28;20404;-61
2021/07/14 04:23:01;;;;;;;4.30;3.20;;;;;;;17.23;89.59;98039.22;5029042;28;20045;-62
2021/07/14 04:25:27;;;;;;;3.47;3.17;;;;;;;17.23;89.16;98038.38;5028225;28;20046;-62
2021/07/14 04:27:52;;;;;;;3.45;3.10;;;;;;;17.25;89.68;98008.88;5027436;28;20063;-62
2021/07/14 04:30:19;;;;;;;3.67;2.50;;;;;;;17.21;88.46;97999.63;5024702;28;20143;-62
2021/07/14 04:32:44;;;;;;;2.40;2.20;;;;;;;17.17;87.87;97987.75;5027350;28;20030;-62
2021/07/14 04:35:10;;;;;;;3.17;2.80;;;;;;;17.17;89.46;97990.34;5027390;28;20037;-62
2021/07/14 04:37:35;;;;;;;3.10;2.53;;;;;;;17.17;87.81;98021.44;5026485;28;20021;-62
2021/07/14 04:40:03;;;;;;;2.70;2.50;;;;;;;17.23;88.37;98033.19;5033604;28;20042;-63
2021/07/14 04:42:28;;;;;;;3.33;3.03;;;;;;;17.19;88.14;98026.50;5026469;28;20033;-63
2021/07/14 04:44:54;;;;;;;2.83;2.42;;;;;;;17.17;89.09;98049.94;5035032;28;20037;-63
2021/07/14 04:47:19;;;;;;;4.85;3.13;;;;;;;17.21;88.21;98077.34;5023479;28;20037;-63
2021/07/14 04:49:45;;;;;;;8.70;3.72;;;;;;;17.15;89.56;98076.81;5035497;28;20104;-62
2021/07/14 04:52:11;;;;;;;2.83;2.63;;;;;;;17.07;90.28;98076.41;5026281;28;20037;-62
2021/07/14 04:54:39;;;;;;;3.10;2.80;;;;;;;17.04;90.11;98058.44;5029026;28;20141;-62
2021/07/14 04:57:05;;;;;;;2.92;2.63;;;;;;;17.04;89.95;98041.16;5023642;28;20339;-63
2021/07/14 04:59:34;;;;;;;15.10;3.17;;;;;;;17.06;89.52;98016.00;5026704;28;20039;-62
2021/07/14 05:02:00;;;;;;;1.98;1.80;;;;;;;17.08;89.79;98013.31;5020001;28;20037;-62
2021/07/14 05:04:25;;;;;;;2.58;2.28;;;;;;;17.17;89.08;98044.75;5024932;28;20114;-63
2021/07/14 05:06:51;;;;;;;2.22;1.95;;;;;;;17.24;88.25;98059.03;5028969;28;20025;-63
2021/07/14 05:09:16;;;;;;;2.53;2.33;;;;;;;17.28;88.20;98057.09;5029935;28;20041;-63
2021/07/14 05:11:41;;;;;;;2.10;1.90;;;;;;;17.38;87.83;98053.09;5029154;28;20056;-63
2021/07/14 05:14:07;;;;;;;2.45;2.25;;;;;;;17.59;86.37;98061.44;5028186;28;20034;-63
2021/07/14 05:16:32;;;;;;;3.20;2.22;;;;;;;17.70;85.90;98072.03;5027506;28;20088;-63
2021/07/14 05:18:59;;;;;;;3.45;2.28;;;;;;;17.73;85.63;98082.25;5030829;28;20277;-63
2021/07/14 05:21:24;;;;;;;2.50;2.40;;;;;;;17.86;85.46;98087.59;5022426;28;20053;-63
2021/07/14 05:23:50;;;;;;;3.00;2.13;;;;;;;18.01;84.32;98064.19;5022280;28;20092;-63
2021/07/14 05:26:17;;;;;;;2.10;2.00;;;;;;;18.14;84.07;98059.97;5027205;28;20049;-63
2021/07/14 05:28:43;;;;;;;1.92;1.83;;;;;;;18.26;83.92;98069.63;5026945;28;20040;-63
2021/07/14 05:31:08;;;;;;;1.90;1.80;;;;;;;18.19;83.03;98065.72;5026177;28;20029;-63
2021/07/14 05:33:34;;;;;;;2.22;1.98;;;;;;;18.29;82.89;98068.59;5027173;28;20041;-63
2021/07/14 05:35:59;;;;;;;2.33;1.92;;;;;;;18.45;82.34;98065.94;5028083;28;20069;-63
2021/07/14 05:38:25;;;;;;;2.38;2.00;;;;;;;18.59;81.46;98068.53;5025773;28;20037;-63
2021/07/14 05:40:52;;;;;;;2.88;1.90;;;;;;;18.81;80.88;98087.09;5025528;28;20086;-63
2021/07/14 05:43:18;;;;;;;2.30;2.20;;;;;;;18.94;80.01;98072.44;5021310;28;20450;-63
2021/07/14 05:45:44;;;;;;;3.15;2.70;;;;;;;19.03;80.99;98077.06;5025895;28;20076;-63
2021/07/14 05:48:10;;;;;;;2.50;2.28;;;;;;;19.29;81.00;98085.84;5027713;28;20069;-63
2021/07/14 05:50:36;;;;;;;2.13;1.92;;;;;;;19.46;80.08;98096.06;5027766;28;20343;-64
2021/07/14 05:53:02;;;;;;;2.30;2.00;;;;;;;19.46;78.42;98101.25;5028665;28;20029;-63
2021/07/14 05:55:27;;;;;;;2.58;2.40;;;;;;;19.46;77.76;98090.00;5030439;28;20441;-62
2021/07/14 05:57:54;;;;;;;2.40;2.30;;;;;;;19.57;77.59;98101.41;5031920;28;20108;-63
2021/07/14 06:00:19;;;;;;;2.10;2.00;;;;;;;19.49;77.36;98082.84;5026383;28;20041;-62
2021/07/14 06:02:45;;;;;;;2.83;2.22;;;;;;;19.60;76.03;98069.19;5033300;28;20045;-63
2021/07/14 06:05:11;;;;;;;2.45;2.13;;;;;;;19.67;75.78;98073.03;5031158;28;20029;-63
2021/07/14 06:07:37;;;;;;;2.15;2.05;;;;;;;19.75;76.33;98091.59;5030652;28;20065;-63
2021/07/14 06:10:05;;;;;;;2.05;1.95;;;;;;;19.88;75.37;98102.88;5036491;28;20120;-63
2021/07/14 06:12:30;;;;;;;3.03;2.25;;;;;;;19.92;75.14;98134.72;5032970;28;20087;-63
2021/07/14 06:14:56;;;;;;;2.53;2.35;;;;;;;19.98;76.91;98136.94;5029438;28;20061;-63
2021/07/14 06:17:21;;;;;;;2.22;2.13;;;;;;;19.97;77.24;98124.84;5031438;28;20043;-63
2021/07/14 06:19:47;;;;;;;1.98;1.88;;;;;;;19.97;76.54;98115.28;5026518;28;20069;-63
2021/07/14 06:22:15;;;;;;;2.15;2.05;;;;;;;19.97;76.40;98119.66;5028068;28;20170;-63
2021/07/14 06:24:41;;;;;;;2.90;2.22;;;;;;;19.95;75.30;98119.75;5028676;28;20029;-63
2021/07/14 06:27:08;;;;;;;3.42;2.00;;;;;;;20.06;75.68;98112.09;5030327;28;20048;-62
2021/07/14 06:29:33;;;;;;;2.40;2.30;;;;;;;20.03;76.19;98120.06;5027042;28;20422;-62
2021/07/14 06:31:58;;;;;;;2.20;2.10;;;;;;;20.01;75.65;98140.16;5027636;28;20044;-62
2021/07/14 06:34:24;;;;;;;2.28;2.10;;;;;;;19.93;76.02;98136.41;5027350;28;20033;-62
2021/07/14 06:36:50;;;;;;;2.58;2.38;;;;;;;19.81;76.43;98134.59;5027100;28;20033;-63
2021/07/14 06:39:15;;;;;;;3.10;2.80;;;;;;;19.71;78.21;98139.53;5030991;28;20044;-63
2021/07/14 06:41:41;;;;;;;5.40;2.50;;;;;;;19.56;78.09;98132.72;5026954;28;20342;-63
2021/07/14 06:44:07;;;;;;;2.78;2.58;;;;;;;19.55;79.43;98115.44;5029163;28;20349;-63
2021/07/14 06:46:32;;;;;;;3.22;2.63;;;;;;;19.51;80.59;98085.38;5031749;28;20033;-63
2021/07/14 06:48:58;;;;;;;3.65;3.13;;;;;;;19.52;81.63;98079.19;5027545;28;20030;-63
2021/07/14 06:51:24;;;;;;;4.50;2.63;;;;;;;19.49;81.63;98069.84;5028572;28;20044;-64
2021/07/14 06:53:50;;;;;;;3.05;2.72;;;;;;;19.46;81.60;98083.06;5028429;28;20365;-63
2021/07/14 06:56:15;;;;;;;2.85;2.63;;;;;;;19.34;81.05;98080.38;5028800;28;20061;-62
2021/07/14 06:58:41;;;;;;;3.42;2.40;;;;;;;19.27;82.39;98110.25;5034192;28;20045;-62
2021/07/14 07:01:08;;;;;;;3.10;2.90;;;;;;;19.22;84.24;98126.16;5026943;28;20076;-62
2021/07/14 07:03:34;;;;;;;3.47;2.63;;;;;;;19.18;84.74;98146.28;5030741;28;20041;-62
2021/07/14 07:06:01;;;;;;;3.28;3.08;;;;;;;19.15;85.03;98162.06;5028209;28;20055;-63
2021/07/14 07:08:26;;;;;;;4.80;3.40;;;;;;;19.11;86.29;98190.94;5032521;28;20120;-63
2021/07/14 07:10:52;;;;;;;6.88;2.83;;;;;;;19.07;87.07;98224.06;5025218;28;20345;-62
2021/07/14 07:13:18;;;;;;;5.55;3.53;;;;;;;18.96;86.54;98221.28;5029695;28;20025;-62
2021/07/14 07:15:47;;;;;;;6.53;3.78;;;;;;;19.01;87.50;98185.44;5028151;28;20029;-62
2021/07/14 07:18:13;;;;;;;10.02;4.18;;;;;;;19.08;87.59;98193.72;5025315;28;20040;-61
2021/07/14 07:20:39;;;;;;;7.53;5.55;;;;;;;19.23;89.30;98244.78;5030679;28;20046;-61
2021/07/14 07:23:05;;;;;;;4.72;4.32;;;;;;;19.24;89.31;98266.41;5027956;28;20076;-61
2021/07/14 07:25:32;;;;;;;5.47;3.97;;;;;;;19.20;90.36;98264.91;5029015;28;20127;-61
2021/07/14 07:28:00;;;;;;;5.05;3.70;;;;;;;19.19;90.93;98217.28;5023797;28;20037;-61
2021/07/14 07:30:25;;;;;;;7.20;4.55;;;;;;;19.08;91.17;98175.53;5029336;28;20038;-61
2021/07/14 07:32:50;;;;;;;4.03;3.72;;;;;;;19.08;91.99;98155.59;5029885;28;20437;-61
2021/07/14 07:35:16;;;;;;;5.10;4.70;;;;;;;19.24;92.91;98168.47;5029779;28;20037;-61
2021/07/14 07:37:41;;;;;;;6.50;4.13;;;;;;;19.49;92.33;98179.06;5028607;28;20553;-61
2021/07/14 07:40:08;;;;;;;5.10;3.15;;;;;;;19.76;91.04;98171.31;5030415;28;20120;-61
2021/07/14 07:42:33;;;;;;;3.90;2.72;;;;;;;19.98;87.94;98131.72;5028288;28;20099;-62
2021/07/14 07:44:59;;;;;;;3.10;2.55;;;;;;;20.18;85.14;98109.59;5025377;28;20120;-61
2021/07/14 07:47:24;;;;;;;2.67;2.30;;;;;;;20.26;83.51;98104.72;5029381;28;20653;-61
2021/07/14 07:49:50;;;;;;;4.10;2.40;;;;;;;20.30;84.20;98069.75;5028952;28;20548;-61
2021/07/14 07:52:18;;;;;;;5.18;2.38;;;;;;;20.36;83.85;98038.13;5028690;28;20033;-61
2021/07/14 07:54:45;;;;;;;2.08;1.95;;;;;;;20.39;82.70;98027.47;5030341;28;20454;-61
2021/07/14 07:57:11;;;;;;;2.10;2.00;;;;;;;20.51;81.36;98037.88;5029278;28;20078;-61
2021/07/14 07:59:36;;;;;;;4.35;2.65;;;;;;;20.49;82.70;98038.94;5027627;28;20152;-62
2021/07/14 08:02:04;;;;;;;2.80;1.98;;;;;;;20.72;82.62;98034.75;5028926;28;20034;-62
2021/07/14 08:04:30;;;;;;;3.33;2.35;;;;;;;21.03;81.64;98060.34;5031207;28;20080;-62
2021/07/14 08:06:55;;;;;;;2.40;1.92;;;;;;;21.05;81.50;98071.47;5029657;28;20032;-62
2021/07/14 08:09:21;;;;;;;1.90;1.77;;;;;;;21.05;79.72;98071.47;5033098;28;20104;-63
2021/07/14 08:11:47;;;;;;;2.33;1.92;;;;;;;21.01;79.71;98070.03;5027968;28;20057;-62
2021/07/14 08:14:14;;;;;;;2.80;2.20;;;;;;;21.11;78.72;98071.06;5029277;28;20044;-62
2021/07/14 08:16:39;;;;;;;3.72;2.15;;;;;;;21.33;77.74;98080.81;5026162;28;20546;-63
2021/07/14 08:19:05;;;;;;;4.10;2.58;;;;;;;21.28;76.97;98075.94;5030778;28;20039;-63
2021/07/14 08:21:30;;;;;;;2.38;2.20;;;;;;;21.24;77.31;98082.31;5028951;28;20049;-62
2021/07/14 08:23:56;;;;;;;2.22;1.95;;;;;;;21.33;76.23;98089.50;5029968;28;20391;-63
2021/07/14 08:26:21;;;;;;;2.83;2.25;;;;;;;21.42;76.31;98107.09;5026838;28;20036;-62
2021/07/14 08:28:47;;;;;;;4.45;2.78;;;;;;;21.55;77.41;98114.88;5026013;28;20279;-63
2021/07/14 08:31:12;;;;;;;2.30;2.10;;;;;;;21.46;76.02;98122.53;5028764;28;20148;-62
2021/07/14 08:33:38;;;;;;;2.60;1.75;;;;;;;21.65;76.00;98128.91;5027065;28;20397;-63
2021/07/14 08:36:04;;;;;;;2.65;2.10;;;;;;;21.71;74.99;98138.91;5028597;28;20033;-62
2021/07/14 08:38:29;;;;;;;2.70;2.50;;;;;;;21.90;75.04;98146.25;5022878;28;20625;-63
2021/07/14 08:40:58;;;;;;;2.95;2.17;;;;;;;21.84;73.68;98146.69;5028057;28;20033;-63
2021/07/14 08:43:27;;;;;;;3.13;2.35;;;;;;;22.10;73.27;98134.41;5025361;28;20063;-63
2021/07/14 08:45:53;;;;;;;4.60;2.45;;;;;;;22.29;72.88;98134.69;5027797;28;20075;-62
2021/07/14 08:48:19;;;;;;;4.03;2.00;;;;;;;22.27;73.37;98150.50;5025931;28;20562;-62
2021/07/14 08:50:48;;;;;;;3.22;2.28;;;;;;;22.22;71.95;98147.38;5031119;28;20056;-62
2021/07/14 08:53:19;;;;;;;3.47;2.88;;;;;;;22.32;71.07;98109.16;5028635;28;20021;-62
2021/07/14 08:55:46;;;;;;;5.13;3.40;;;;;;;22.30;71.50;98086.72;5026713;28;20034;-63
2021/07/14 08:58:16;;;;;;;4.60;2.72;;;;;;;22.30;69.93;98136.34;5027069;28;20030;-62
2021/07/14 09:00:42;;;;;;;4.10;3.25;;;;;;;22.16;71.31;98150.44;5031620;28;20025;-62
2021/07/14 09:03:08;;;;;;;4.97;3.65;;;;;;;22.36;71.01;98148.97;5029997;28;20270;-62
2021/07/14 09:05:34;;;;;;;4.28;2.90;;;;;;;22.53;70.38;98148.50;5021231;28;20038;-62
2021/07/14 09:07:59;;;;;;;4.93;3.45;;;;;;;23.01;68.35;98148.38;5030139;28;20033;-64
2021/07/14 09:10:24;;;;;;;4.60;3.30;;;;;;;23.04;67.63;98130.66;5030332;28;20536;-62
2021/07/14 09:12:54;;;;;;;4.32;3.13;;;;;;;22.87;66.49;98117.25;5027392;28;20113;-62
2021/07/14 09:15:21;;;;;;;4.32;3.00;;;;;;;23.12;67.15;98123.09;5025984;28;20061;-62
2021/07/14 09:17:52;;;;;;;3.58;3.10;;;;;;;23.35;66.53;98104.72;5028511;28;20454;-62
2021/07/14 09:20:28;;;;;;;7.00;2.85;;;;;;;23.32;66.52;98111.06;5024734;28;20057;-62
2021/07/14 09:23:22;;;;;;;5.93;2.92;;;;;;;23.64;65.92;98137.31;5027114;28;20029;-62
2021/07/14 09:25:52;;;;;;;3.22;2.92;;;;;;;23.81;64.79;98149.03;5029628;28;20045;-62
2021/07/14 09:28:20;;;;;;;4.82;2.85;;;;;;;24.11;64.11;98146.56;5030967;28;20033;-62
2021/07/14 09:30:48;;;;;;;2.88;2.33;;;;;;;24.40;62.04;98137.16;5029199;28;20040;-61
2021/07/14 09:33:16;;;;;;;4.40;3.28;;;;;;;24.66;60.58;98136.78;5031719;28;20022;-62
2021/07/14 09:35:47;;;;;;;5.32;3.85;;;;;;;23.96;62.55;98150.44;5028387;28;20030;-62
2021/07/14 09:38:23;;;;;;;3.35;2.38;;;;;;;23.83;63.46;98141.91;5035718;28;20030;-62
2021/07/14 09:40:55;;;;;;;3.03;2.83;;;;;;;23.75;63.12;98132.06;5030936;28;20034;-61
2021/07/14 09:43:44;;;;;;;3.10;2.80;;;;;;;23.81;64.27;98133.31;5036830;28;20087;-62
2021/07/14 09:46:11;;;;;;;5.65;2.72;;;;;;;23.75;65.12;98145.16;5035151;28;20042;-62
2021/07/14 09:48:39;;;;;;;3.60;2.25;;;;;;;24.08;64.95;98145.03;5032323;28;20590;-62
2021/07/14 09:51:10;;;;;;;5.40;2.90;;;;;;;24.02;64.20;98142.06;5037300;28;20042;-62
2021/07/14 09:53:42;;;;;;;8.25;4.07;;;;;;;23.95;63.92;98146.16;5037114;28;20449;-62
2021/07/14 09:56:16;;;;;;;4.28;2.90;;;;;;;24.05;64.49;98141.84;5033909;28;20033;-62
2021/07/14 09:58:43;;;;;;;4.18;2.92;;;;;;;24.23;64.40;98131.69;5033653;28;20032;-62
2021/07/14 10:01:16;;;;;;;2.72;2.50;;;;;;;24.43;62.35;98123.81;5033012;28;20132;-63
2021/07/14 10:03:51;;;;;;;3.45;2.63;;;;;;;24.70;61.13;98109.34;5033985;28;20090;-63
2021/07/14 10:06:18;;;;;;;3.10;2.63;;;;;;;24.64;61.13;98109.88;5034453;28;20142;-63
2021/07/14 10:08:45;;;;;;;3.85;2.60;;;;;;;24.70;60.49;98111.94;5031848;28;20037;-63
2021/07/14 10:11:15;;;;;;;3.38;3.08;;;;;;;24.93;60.01;98122.19;5036386;28;20036;-62
2021/07/14 10:13:54;;;;;;;4.40;2.90;;;;;;;24.75;59.01;98130.75;5033025;28;20033;-63
2021/07/14 10:16:21;;;;;;;3.85;3.50;;;;;;;24.79;59.70;98150.50;5030763;28;20056;-62
2021/07/14 10:19:09;;;;;;;5.43;3.13;;;;;;;24.89;60.59;98144.41;5037916;28;20093;-63
2021/07/14 10:21:46;;;;;;;4.15;3.15;;;;;;;25.18;59.35;98149.78;5033813;28;20050;-63
2021/07/14 10:24:14;;;;;;;5.80;3.50;;;;;;;25.20;58.57;98136.53;5033744;28;20065;-63
2021/07/14 10:26:42;;;;;;;4.95;3.25;;;;;;;25.21;58.62;98131.13;5030480;28;20330;-62
2021/07/14 10:29:09;;;;;;;4.05;3.17;;;;;;;25.04;59.39;98113.38;5033859;28;20081;-62
2021/07/14 10:31:36;;;;;;;5.63;3.78;;;;;;;24.59;60.21;98115.50;5038393;28;20447;-62
2021/07/14 10:34:04;;;;;;;3.65;3.35;;;;;;;24.69;60.89;98107.69;5029474;28;20428;-62
2021/07/14 10:36:32;;;;;;;3.08;2.67;;;;;;;24.81;60.21;98104.03;5030804;28;20376;-63
2021/07/14 10:39:17;;;;;;;3.45;3.10;;;;;;;24.99;59.28;98113.78;5029821;28;20046;-62
2021/07/14 10:41:44;;;;;;;3.50;2.50;;;;;;;25.24;59.29;98125.66;5025296;28;20558;-63
2021/07/14 10:44:11;;;;;;;3.60;2.95;;;;;;;25.59;58.79;98132.28;5028711;28;20036;-62
2021/07/14 10:46:38;;;;;;;5.45;3.40;;;;;;;25.71;57.51;98134.66;5027456;28;20036;-63
2021/07/14 10:49:08;;;;;;;4.43;4.03;;;;;;;25.88;56.59;98135.78;5031309;28;20041;-64
2021/07/14 10:51:35;;;;;;;10.23;3.72;;;;;;;26.11;56.76;98150.28;5029233;28;20025;-63
2021/07/14 10:54:03;;;;;;;3.33;3.03;;;;;;;26.43;55.32;98147.41;5029663;28;20029;-63
2021/07/14 10:56:41;;;;;;;4.32;3.90;;;;;;;25.71;56.71;98146.94;5028972;28;20029;-63
2021/07/14 10:59:06;;;;;;;3.78;3.47;;;;;;;25.69;57.24;98154.09;5024176;28;20037;-64
2021/07/14 11:01:48;;;;;;;4.38;3.50;;;;;;;26.06;55.61;98147.25;5026495;28;20091;-64
2021/07/14 11:04:33;;;;;;;5.43;4.55;;;;;;;25.73;56.40;98135.31;5026658;28;20083;-64
2021/07/14 11:07:07;;;;;;;5.63;4.05;;;;;;;25.71;56.97;98133.81;5015668;28;20045;-62
2021/07/14 11:09:33;;;;;;;5.27;3.10;;;;;;;26.21;55.43;98134.56;5030988;28;20059;-63
2021/07/14 11:11:58;;;;;;;3.30;3.00;;;;;;;26.44;53.43;98135.91;5034584;28;20476;-63
2021/07/14 11:14:39;;;;;;;3.92;2.95;;;;;;;26.86;54.06;98123.28;5031167;28;20116;-63
2021/07/14 11:17:09;;;;;;;3.67;3.10;;;;;;;27.04;52.17;98121.53;5031976;28;20022;-63
2021/07/14 11:20:13;;;;;;;4.65;3.13;;;;;;;26.97;52.08;98115.19;5028267;28;20045;-62
2021/07/14 11:22:49;;;;;;;3.50;3.17;;;;;;;26.71;55.71;98116.75;5026407;28;20038;-63
2021/07/14 11:25:20;;;;;;;7.57;4.15;;;;;;;26.65;51.98;98117.34;5031344;28;20661;-63
2021/07/14 11:27:53;;;;;;;5.13;3.45;;;;;;;26.68;52.60;98111.81;5025630;28;20032;-63
2021/07/14 11:30:25;;;;;;;4.65;3.80;;;;;;;26.66;53.16;98108.47;5030950;28;20338;-62
2021/07/14 11:32:55;;;;;;;3.92;3.63;;;;;;;26.97;52.43;98103.84;5031412;28;20422;-62
2021/07/14 11:35:34;;;;;;;5.20;4.63;;;;;;;26.84;52.65;98096.25;5028379;28;20033;-63
2021/07/14 11:38:02;;;;;;;5.53;4.22;;;;;;;26.73;52.66;98093.78;5024191;28;20080;-63
2021/07/14 11:40:27;;;;;;;6.97;3.95;;;;;;;26.91;53.55;98086.81;5030678;28;20095;-63
2021/07/14 11:42:57;;;;;;;6.68;4.55;;;;;;;27.11;51.83;98085.78;5026812;28;20033;-63
2021/07/14 11:45:25;;;;;;;5.45;4.15;;;;;;;27.37;53.04;98085.88;5028461;28;20143;-63
2021/07/14 11:48:02;;;;;;;6.05;4.38;;;;;;;27.54;51.31;98087.75;5025139;28;20632;-63